トビリシ の空港の天気 - METARとTAF

トビリシ国際空港 ( UGTB / TBS ) - グルジア トビリシ
飛行場実況気象(Metar)
観測時間01/17 10:30 +04 (01/17 06:30 UTC)
風向・風速北 2m/s
視程4000m
天気現象もや
なし
気温0℃
湿度86%
気圧1028hPa
METARUGTB 170630Z 35004KT 4000 BR NSC M00/M02 Q1028 R31L/CLRD70 NOSIG
過去の天気等 Google飛行場航空写真 Wunderground天気予報

過去48時間のMETAR

飛行場予報(TAF)
発表時間: 1/17 09:00 +04 (1/17 05:00 UTC)
予報対象時間: 17日10時 +04 ~ 18日10時 +04
風向・風速不定 1m/s
視程8,000m
なし
17日10時 +04 ~ 17日12時 +04 に一時的に
視程4,000m
天気現象もや
18日6時 +04 ~ 18日10時 +04 に一時的に
視程4,000m
天気現象もや
TAF UGTB 170500Z 1706/1806 VRB02KT 8000 NSC TX08/1712Z TNM02/1802Z
TEMPO 1706/1708 4000 BR
TEMPO 1802/1806 4000 BR